createdAt,value
2023-09-15T00:00:19.866Z,0
2023-09-15T00:02:21.756Z,0
2023-09-15T00:06:24.660Z,0
2023-09-15T00:10:27.174Z,0
2023-09-15T00:12:28.594Z,0
2023-09-15T00:16:31.273Z,0
2023-09-15T00:20:34.469Z,0
2023-09-15T00:22:36.252Z,0
2023-09-15T00:26:38.539Z,0
2023-09-15T00:28:39.763Z,0
2023-09-15T00:32:42.732Z,0
2023-09-15T00:38:47.115Z,0
2023-09-15T00:44:50.301Z,0
2023-09-15T00:48:52.729Z,0
2023-09-15T00:54:56.860Z,0
2023-09-15T00:59:00.354Z,0
2023-09-15T01:01:02.261Z,0
2023-09-15T01:05:05.010Z,0
2023-09-15T01:09:08.379Z,0
2023-09-15T01:11:09.749Z,0
2023-09-15T01:15:21.712Z,0
2023-09-15T01:21:17.258Z,0
2023-09-15T01:27:22.049Z,0
2023-09-15T01:31:25.001Z,0
2023-09-15T01:37:28.530Z,0
2023-09-15T01:41:31.155Z,0
2023-09-15T01:43:32.510Z,0
2023-09-15T01:47:34.839Z,0
2023-09-15T01:51:37.888Z,0
2023-09-15T01:53:39.762Z,0
2023-09-15T01:57:42.366Z,0
2023-09-15T02:03:47.680Z,0
2023-09-15T02:07:50.242Z,0
2023-09-15T02:09:52.143Z,0
2023-09-15T02:13:55.168Z,0
2023-09-15T02:19:59.058Z,0
2023-09-15T02:24:01.700Z,0
2023-09-15T02:26:02.782Z,0
2023-09-15T02:30:05.711Z,0
2023-09-15T02:34:08.803Z,0
2023-09-15T02:36:10.374Z,0
2023-09-15T02:40:12.938Z,0
2023-09-15T02:46:16.714Z,0
2023-09-15T02:50:20.386Z,0
2023-09-15T02:52:21.763Z,0
2023-09-15T02:56:24.815Z,0
2023-09-15T03:02:29.345Z,0
2023-09-15T03:06:32.935Z,0
2023-09-15T03:08:34.000Z,0
2023-09-15T03:12:37.812Z,0
2023-09-15T03:16:40.793Z,0
2023-09-15T03:18:41.801Z,0
2023-09-15T03:22:44.226Z,0
2023-09-15T03:26:47.205Z,0
2023-09-15T03:28:49.167Z,0
2023-09-15T03:32:51.742Z,0
2023-09-15T03:34:53.515Z,0
2023-09-15T03:38:56.054Z,0
2023-09-15T03:45:00.438Z,0
2023-09-15T03:51:06.011Z,0
2023-09-15T03:55:08.848Z,0
2023-09-15T03:55:52.654Z,0
2023-09-15T03:59:55.904Z,0
2023-09-15T04:01:57.012Z,0
2023-09-15T04:06:00.051Z,0
2023-09-15T04:10:03.130Z,0
2023-09-15T04:12:04.217Z,0
2023-09-15T04:16:06.998Z,0
2023-09-15T04:22:10.756Z,0
2023-09-15T04:28:15.170Z,0
2023-09-15T04:32:17.377Z,0
2023-09-15T04:38:22.539Z,0
2023-09-15T04:42:25.003Z,0
2023-09-15T04:44:26.235Z,0
2023-09-15T04:48:29.119Z,0
2023-09-15T04:52:32.046Z,0
2023-09-15T04:54:33.807Z,0
2023-09-15T04:58:36.242Z,0
2023-09-15T05:04:41.088Z,0
2023-09-15T05:08:43.887Z,0
2023-09-15T05:10:45.041Z,0
2023-09-15T05:14:48.709Z,0
2023-09-15T05:20:52.256Z,0
2023-09-15T05:24:56.528Z,0
2023-09-15T05:26:56.793Z,0
2023-09-15T05:30:59.192Z,0
2023-09-15T05:35:01.518Z,0
2023-09-15T05:37:02.784Z,0
2023-09-15T05:41:05.746Z,0
2023-09-15T05:45:08.560Z,0
2023-09-15T05:47:10.310Z,0
2023-09-15T05:51:12.844Z,0
2023-09-15T05:53:14.264Z,0
2023-09-15T05:57:16.866Z,0
2023-09-15T06:03:20.766Z,0
2023-09-15T06:05:21.913Z,0
2023-09-15T06:09:24.854Z,0
2023-09-15T06:13:27.307Z,0
2023-09-15T06:19:30.966Z,0
2023-09-15T06:23:33.425Z,0
2023-09-15T06:25:35.013Z,0
2023-09-15T06:29:37.836Z,0
2023-09-15T06:33:40.213Z,0
2023-09-15T06:35:41.343Z,0
2023-09-15T06:39:43.716Z,0
2023-09-15T06:45:47.539Z,0.561
2023-09-15T06:49:51.074Z,0
2023-09-15T06:51:52.107Z,0.702
2023-09-15T06:55:54.417Z,0
2023-09-15T07:01:57.701Z,1.263
2023-09-15T07:06:00.292Z,0
2023-09-15T07:08:01.581Z,0.14
2023-09-15T07:12:04.487Z,0
2023-09-15T07:16:07.097Z,0.421
2023-09-15T07:18:09.054Z,0.14
2023-09-15T07:22:12.549Z,0.14
2023-09-15T07:26:15.072Z,0
2023-09-15T07:28:16.664Z,0
2023-09-15T07:32:19.549Z,0.14
2023-09-15T07:34:21.404Z,0
2023-09-15T07:38:24.023Z,0
2023-09-15T07:44:27.470Z,1.965
2023-09-15T07:50:31.234Z,2.246
2023-09-15T07:54:33.733Z,2.246
2023-09-15T07:58:37.822Z,2.106
2023-09-15T08:00:39.764Z,0.982
2023-09-15T08:04:42.028Z,0
2023-09-15T08:08:44.832Z,1.263
2023-09-15T08:10:46.138Z,2.808
2023-09-15T08:14:48.460Z,1.825
2023-09-15T08:16:49.983Z,0.982
2023-09-15T08:20:53.198Z,2.106
2023-09-15T08:26:57.575Z,0
2023-09-15T08:28:58.832Z,0
2023-09-15T08:33:01.405Z,0
2023-09-15T08:37:04.485Z,1.684
2023-09-15T08:39:05.656Z,0.561
2023-09-15T08:43:08.016Z,3.65
2023-09-15T08:47:10.789Z,1.965
2023-09-15T08:49:11.738Z,4.914
2023-09-15T08:53:15.260Z,3.088
2023-09-15T08:57:18.649Z,3.65
2023-09-15T08:59:20.423Z,5.054
2023-09-15T09:03:22.227Z,2.246
2023-09-15T09:09:25.420Z,6.458
2023-09-15T09:13:38.004Z,2.667
2023-09-15T09:15:30.237Z,5.054
2023-09-15T09:19:33.197Z,5.616
2023-09-15T09:25:37.566Z,6.318
2023-09-15T09:29:40.082Z,4.071
2023-09-15T09:31:41.741Z,5.194
2023-09-15T09:35:43.829Z,6.318
2023-09-15T09:39:47.039Z,7.16
2023-09-15T09:41:47.998Z,3.79
2023-09-15T09:45:50.885Z,0.421
2023-09-15T09:51:55.020Z,3.369
2023-09-15T09:55:57.010Z,4.071
2023-09-15T09:57:58.693Z,2.106
2023-09-15T09:59:59.683Z,6.037
2023-09-15T10:02:01.203Z,5.194
2023-09-15T10:08:05.266Z,4.492
2023-09-15T10:14:09.202Z,2.948
2023-09-15T10:18:11.413Z,4.352
2023-09-15T10:24:14.214Z,5.756
2023-09-15T10:28:29.524Z,2.246
2023-09-15T10:30:17.794Z,3.229
2023-09-15T10:34:20.357Z,0.14
2023-09-15T10:38:24.450Z,4.633
2023-09-15T10:40:25.663Z,1.965
2023-09-15T10:41:09.329Z,1.684
2023-09-15T10:45:11.750Z,3.51
2023-09-15T10:49:14.330Z,1.123
2023-09-15T10:51:15.745Z,4.914
2023-09-15T10:55:18.218Z,5.335
2023-09-15T11:01:22.647Z,3.229
2023-09-15T11:05:24.743Z,4.914
2023-09-15T11:07:25.520Z,6.177
2023-09-15T11:11:28.210Z,1.404
2023-09-15T11:15:31.349Z,3.51
2023-09-15T11:17:32.848Z,2.246
2023-09-15T11:21:34.928Z,5.616
2023-09-15T11:27:39.521Z,5.054
2023-09-15T11:31:41.607Z,3.65
2023-09-15T11:33:43.463Z,6.177
2023-09-15T11:37:45.592Z,6.739
2023-09-15T11:43:48.760Z,2.948
2023-09-15T11:45:50.136Z,4.773
2023-09-15T11:49:52.055Z,7.441
2023-09-15T11:53:54.405Z,4.773
2023-09-15T11:59:58.671Z,1.684
2023-09-15T12:04:01.712Z,2.667
2023-09-15T12:06:03.163Z,3.088
2023-09-15T12:10:04.934Z,0.28
2023-09-15T12:14:09.508Z,3.51
2023-09-15T12:16:08.773Z,3.79
2023-09-15T12:20:10.833Z,8.283
2023-09-15T12:26:14.666Z,2.667
2023-09-15T12:30:17.495Z,0.28
2023-09-15T12:32:18.406Z,6.598
2023-09-15T12:36:21.620Z,5.335
2023-09-15T12:42:25.395Z,5.756
2023-09-15T12:46:28.439Z,4.071
2023-09-15T12:48:28.942Z,4.352
2023-09-15T12:52:31.447Z,0
2023-09-15T12:56:34.217Z,3.79
2023-09-15T12:58:35.746Z,2.527
2023-09-15T13:02:38.862Z,1.684
2023-09-15T13:08:42.169Z,6.879
2023-09-15T13:12:44.345Z,5.054
2023-09-15T13:14:45.322Z,7.3
2023-09-15T13:18:47.879Z,0.842
2023-09-15T13:24:53.294Z,3.369
2023-09-15T13:30:57.065Z,0.561
2023-09-15T13:35:00.040Z,4.212
2023-09-15T13:39:02.924Z,5.475
2023-09-15T13:41:03.853Z,5.616
2023-09-15T13:45:05.970Z,6.458
2023-09-15T13:49:08.688Z,4.633
2023-09-15T13:51:09.649Z,2.948
2023-09-15T13:55:13.072Z,2.527
2023-09-15T13:57:21.918Z,3.369
2023-09-15T14:01:16.454Z,7.722
2023-09-15T14:07:19.716Z,4.352
2023-09-15T14:13:23.910Z,7.862
2023-09-15T14:17:26.264Z,6.177
2023-09-15T14:23:30.330Z,3.65
2023-09-15T14:27:32.686Z,3.931
2023-09-15T14:29:34.364Z,1.965
2023-09-15T14:33:36.370Z,7.16
2023-09-15T14:37:38.581Z,8.845
2023-09-15T14:39:39.981Z,5.194
2023-09-15T14:43:43.137Z,3.65
2023-09-15T14:49:47.521Z,6.318
2023-09-15T14:53:50.391Z,4.352
2023-09-15T14:55:51.774Z,7.16
2023-09-15T14:59:53.733Z,4.352
2023-09-15T15:05:58.068Z,1.684
2023-09-15T15:12:01.689Z,0
2023-09-15T15:16:04.996Z,4.212
2023-09-15T15:22:09.352Z,2.948
2023-09-15T15:26:12.719Z,3.369
2023-09-15T15:28:13.800Z,3.931
2023-09-15T15:32:15.883Z,7.16
2023-09-15T15:36:18.568Z,5.756
2023-09-15T15:38:19.595Z,7.862
2023-09-15T15:42:22.513Z,9.828
2023-09-15T15:48:25.339Z,3.65
2023-09-15T15:54:29.389Z,4.492
2023-09-15T15:58:31.585Z,3.65
2023-09-15T16:04:36.590Z,3.79
2023-09-15T16:08:39.208Z,1.965
2023-09-15T16:10:40.826Z,6.458
2023-09-15T16:14:43.881Z,4.492
2023-09-15T16:18:46.178Z,3.369
2023-09-15T16:20:47.090Z,1.965
2023-09-15T16:24:50.153Z,2.948
2023-09-15T16:30:55.156Z,3.229
2023-09-15T16:34:58.225Z,2.808
2023-09-15T16:36:59.050Z,5.896
2023-09-15T16:41:09.855Z,4.773
2023-09-15T16:47:04.791Z,2.808
2023-09-15T16:51:07.240Z,2.106
2023-09-15T16:53:08.147Z,4.773
2023-09-15T16:57:10.971Z,5.194
2023-09-15T17:03:15.134Z,3.229
2023-09-15T17:07:17.484Z,3.51
2023-09-15T17:09:18.689Z,3.79
2023-09-15T17:13:20.825Z,0.421
2023-09-15T17:19:24.387Z,0
2023-09-15T17:25:27.653Z,0.842
2023-09-15T17:26:11.368Z,1.263
2023-09-15T17:30:13.751Z,0
2023-09-15T17:34:16.773Z,1.123
2023-09-15T17:36:17.918Z,0.421
2023-09-15T17:40:20.617Z,0.702
2023-09-15T17:44:23.029Z,0.28
2023-09-15T17:46:23.997Z,1.965
2023-09-15T17:50:26.624Z,2.527
2023-09-15T17:56:29.998Z,1.404
2023-09-15T18:02:34.465Z,1.123
2023-09-15T18:06:36.966Z,2.246
2023-09-15T18:12:40.376Z,0.702
2023-09-15T18:16:43.627Z,2.808
2023-09-15T18:18:45.375Z,2.527
2023-09-15T18:22:47.958Z,4.492
2023-09-15T18:26:50.294Z,2.808
2023-09-15T18:28:51.913Z,3.369
2023-09-15T18:32:55.071Z,0.982
2023-09-15T18:38:58.673Z,1.263
2023-09-15T18:43:01.453Z,0
2023-09-15T18:45:02.753Z,0
2023-09-15T18:49:06.381Z,0.28
2023-09-15T18:55:09.952Z,0
2023-09-15T18:59:13.178Z,0
2023-09-15T19:01:15.025Z,0
2023-09-15T19:05:18.188Z,0
2023-09-15T19:09:20.869Z,0
2023-09-15T19:11:21.938Z,0
2023-09-15T19:15:24.557Z,0
2023-09-15T19:19:27.427Z,0
2023-09-15T19:21:29.276Z,0
2023-09-15T19:25:31.780Z,0
2023-09-15T19:27:32.881Z,0
2023-09-15T19:29:34.212Z,0
2023-09-15T19:31:35.601Z,0
2023-09-15T19:37:39.146Z,0
2023-09-15T19:39:40.571Z,0
2023-09-15T19:43:43.122Z,0
2023-09-15T19:47:45.022Z,0
2023-09-15T19:53:48.765Z,0
2023-09-15T19:57:52.207Z,0
2023-09-15T19:59:53.699Z,0
2023-09-15T20:03:56.412Z,0
2023-09-15T20:07:59.549Z,1.965
2023-09-15T20:10:01.287Z,0.842
2023-09-15T20:14:04.360Z,1.123
2023-09-15T20:20:08.577Z,0.14
2023-09-15T20:26:12.254Z,0.842
2023-09-15T20:30:14.718Z,0.28
2023-09-15T20:36:19.598Z,0.14
2023-09-15T20:40:22.908Z,0.14
2023-09-15T20:42:24.213Z,0.702
2023-09-15T20:46:26.603Z,0
2023-09-15T20:50:28.536Z,0.842
2023-09-15T20:52:29.556Z,0
2023-09-15T20:56:32.337Z,0
2023-09-15T21:02:36.513Z,0
2023-09-15T21:06:39.604Z,0
2023-09-15T21:08:41.155Z,0
2023-09-15T21:12:43.236Z,0
2023-09-15T21:18:47.004Z,0
2023-09-15T21:24:51.748Z,0
2023-09-15T21:28:54.275Z,0
2023-09-15T21:32:56.579Z,0
2023-09-15T21:34:57.672Z,0
2023-09-15T21:38:59.824Z,0
2023-09-15T21:45:04.274Z,0
2023-09-15T21:49:07.862Z,0
2023-09-15T21:51:08.764Z,0
2023-09-15T21:53:10.571Z,0
2023-09-15T21:55:11.741Z,0
2023-09-15T22:01:16.342Z,0
2023-09-15T22:07:21.005Z,0
2023-09-15T22:11:23.685Z,0
2023-09-15T22:17:27.768Z,0
2023-09-15T22:21:30.472Z,0
2023-09-15T22:23:31.372Z,0
2023-09-15T22:27:33.690Z,0
2023-09-15T22:31:35.776Z,0
2023-09-15T22:33:36.911Z,0
2023-09-15T22:37:39.678Z,0
2023-09-15T22:43:43.101Z,0
2023-09-15T22:47:46.408Z,0
2023-09-15T22:49:48.004Z,0
2023-09-15T22:53:51.021Z,0
2023-09-15T22:59:54.557Z,0
2023-09-15T23:03:57.274Z,0
2023-09-15T23:05:58.558Z,0
2023-09-15T23:10:00.871Z,0
2023-09-15T23:14:02.942Z,0
2023-09-15T23:16:04.835Z,0
2023-09-15T23:20:07.216Z,0
2023-09-15T23:24:09.768Z,0
2023-09-15T23:26:11.146Z,0
2023-09-15T23:30:14.054Z,0
2023-09-15T23:32:15.935Z,0
2023-09-15T23:34:16.962Z,0
2023-09-15T23:36:18.055Z,0
2023-09-15T23:42:22.298Z,0
2023-09-15T23:44:23.402Z,0
2023-09-15T23:48:26.164Z,0
2023-09-15T23:52:28.563Z,0
2023-09-15T23:58:32.742Z,0
